sensor_id;sensor_type;location;lat;lon;timestamp;P1;durP1;ratioP1;P2;durP2;ratioP2
20348;SDS011;10332;50.208;18.988;2023-07-08T00:01:17;0.68;;;0.68;;
20348;SDS011;10332;50.208;18.988;2023-07-08T00:03:47;0.77;;;0.70;;
20348;SDS011;10332;50.208;18.988;2023-07-08T00:06:26;0.30;;;0.30;;
20348;SDS011;10332;50.208;18.988;2023-07-08T00:08:54;0.60;;;0.60;;
20348;SDS011;10332;50.208;18.988;2023-07-08T00:11:22;0.93;;;0.93;;
20348;SDS011;10332;50.208;18.988;2023-07-08T00:13:50;0.77;;;0.77;;
20348;SDS011;10332;50.208;18.988;2023-07-08T00:16:18;1.15;;;1.00;;
20348;SDS011;10332;50.208;18.988;2023-07-08T00:18:46;0.65;;;0.65;;
20348;SDS011;10332;50.208;18.988;2023-07-08T00:21:16;0.77;;;0.77;;
20348;SDS011;10332;50.208;18.988;2023-07-08T00:23:45;1.05;;;0.98;;
20348;SDS011;10332;50.208;18.988;2023-07-08T00:26:35;2.28;;;1.83;;
20348;SDS011;10332;50.208;18.988;2023-07-08T00:29:02;1.20;;;1.10;;
20348;SDS011;10332;50.208;18.988;2023-07-08T00:31:29;2.05;;;1.10;;
20348;SDS011;10332;50.208;18.988;2023-07-08T00:33:59;1.17;;;1.05;;
20348;SDS011;10332;50.208;18.988;2023-07-08T00:36:29;1.13;;;1.00;;
20348;SDS011;10332;50.208;18.988;2023-07-08T00:38:58;1.40;;;1.30;;
20348;SDS011;10332;50.208;18.988;2023-07-08T00:41:35;1.20;;;1.10;;
20348;SDS011;10332;50.208;18.988;2023-07-08T00:44:07;1.42;;;1.20;;
20348;SDS011;10332;50.208;18.988;2023-07-08T00:54:58;0.80;;;0.80;;
20348;SDS011;10332;50.208;18.988;2023-07-08T00:57:33;1.30;;;1.20;;
20348;SDS011;10332;50.208;18.988;2023-07-08T01:00:11;1.08;;;0.95;;
20348;SDS011;10332;50.208;18.988;2023-07-08T01:02:46;1.67;;;1.42;;
20348;SDS011;10332;50.208;18.988;2023-07-08T01:05:22;1.13;;;1.02;;
20348;SDS011;10332;50.208;18.988;2023-07-08T01:07:54;1.45;;;1.20;;
20348;SDS011;10332;50.208;18.988;2023-07-08T01:10:46;1.40;;;1.27;;
20348;SDS011;10332;50.208;18.988;2023-07-08T01:13:19;1.50;;;1.40;;
20348;SDS011;10332;50.208;18.988;2023-07-08T01:15:49;2.00;;;1.77;;
20348;SDS011;10332;50.208;18.988;2023-07-08T01:18:18;1.42;;;1.33;;
20348;SDS011;10332;50.208;18.988;2023-07-08T01:20:48;1.77;;;1.48;;
20348;SDS011;10332;50.208;18.988;2023-07-08T01:23:16;1.52;;;1.42;;
20348;SDS011;10332;50.208;18.988;2023-07-08T01:25:45;1.92;;;1.73;;
20348;SDS011;10332;50.208;18.988;2023-07-08T01:28:14;3.30;;;2.60;;
20348;SDS011;10332;50.208;18.988;2023-07-08T01:30:42;3.65;;;2.40;;
20348;SDS011;10332;50.208;18.988;2023-07-08T01:33:20;3.20;;;2.42;;
20348;SDS011;10332;50.208;18.988;2023-07-08T01:35:49;2.33;;;1.98;;
20348;SDS011;10332;50.208;18.988;2023-07-08T01:38:18;2.65;;;2.10;;
20348;SDS011;10332;50.208;18.988;2023-07-08T01:40:54;1.98;;;1.60;;
20348;SDS011;10332;50.208;18.988;2023-07-08T01:43:24;1.33;;;1.20;;
20348;SDS011;10332;50.208;18.988;2023-07-08T01:45:52;1.35;;;1.25;;
20348;SDS011;10332;50.208;18.988;2023-07-08T01:48:22;2.22;;;1.38;;
20348;SDS011;10332;50.208;18.988;2023-07-08T01:50:56;2.25;;;1.92;;
20348;SDS011;10332;50.208;18.988;2023-07-08T01:53:30;1.98;;;1.85;;
20348;SDS011;10332;50.208;18.988;2023-07-08T01:56:02;3.80;;;3.10;;
20348;SDS011;10332;50.208;18.988;2023-07-08T01:58:31;4.90;;;4.18;;
20348;SDS011;10332;50.208;18.988;2023-07-08T02:00:59;4.75;;;3.97;;
20348;SDS011;10332;50.208;18.988;2023-07-08T02:03:27;4.80;;;3.45;;
20348;SDS011;10332;50.208;18.988;2023-07-08T02:05:55;4.18;;;3.47;;
20348;SDS011;10332;50.208;18.988;2023-07-08T02:08:23;3.30;;;2.70;;
20348;SDS011;10332;50.208;18.988;2023-07-08T02:10:52;3.88;;;3.30;;
20348;SDS011;10332;50.208;18.988;2023-07-08T02:13:23;3.55;;;3.13;;
20348;SDS011;10332;50.208;18.988;2023-07-08T02:15:52;4.80;;;3.65;;
20348;SDS011;10332;50.208;18.988;2023-07-08T02:18:19;3.00;;;2.70;;
20348;SDS011;10332;50.208;18.988;2023-07-08T02:20:49;3.33;;;3.00;;
20348;SDS011;10332;50.208;18.988;2023-07-08T02:23:16;3.33;;;2.80;;
20348;SDS011;10332;50.208;18.988;2023-07-08T02:25:50;14.57;;;8.65;;
20348;SDS011;10332;50.208;18.988;2023-07-08T02:28:19;11.65;;;7.10;;
20348;SDS011;10332;50.208;18.988;2023-07-08T02:30:47;7.03;;;5.28;;
20348;SDS011;10332;50.208;18.988;2023-07-08T02:33:15;7.50;;;5.50;;
20348;SDS011;10332;50.208;18.988;2023-07-08T02:35:44;6.95;;;5.75;;
20348;SDS011;10332;50.208;18.988;2023-07-08T02:38:12;5.68;;;4.22;;
20348;SDS011;10332;50.208;18.988;2023-07-08T02:40:40;4.50;;;3.42;;
20348;SDS011;10332;50.208;18.988;2023-07-08T02:43:07;3.45;;;3.05;;
20348;SDS011;10332;50.208;18.988;2023-07-08T02:45:36;2.85;;;2.47;;
20348;SDS011;10332;50.208;18.988;2023-07-08T02:48:03;3.47;;;2.78;;
20348;SDS011;10332;50.208;18.988;2023-07-08T02:50:31;3.40;;;2.88;;
20348;SDS011;10332;50.208;18.988;2023-07-08T02:52:58;5.20;;;3.63;;
20348;SDS011;10332;50.208;18.988;2023-07-08T02:55:26;7.05;;;5.88;;
20348;SDS011;10332;50.208;18.988;2023-07-08T02:57:53;9.02;;;6.13;;
20348;SDS011;10332;50.208;18.988;2023-07-08T03:00:21;11.95;;;8.23;;
20348;SDS011;10332;50.208;18.988;2023-07-08T03:02:48;9.60;;;7.07;;
20348;SDS011;10332;50.208;18.988;2023-07-08T03:05:16;8.55;;;6.80;;
20348;SDS011;10332;50.208;18.988;2023-07-08T03:07:43;10.63;;;7.75;;
20348;SDS011;10332;50.208;18.988;2023-07-08T03:10:11;10.15;;;6.65;;
20348;SDS011;10332;50.208;18.988;2023-07-08T03:12:38;8.82;;;6.32;;
20348;SDS011;10332;50.208;18.988;2023-07-08T03:15:06;7.20;;;5.25;;
20348;SDS011;10332;50.208;18.988;2023-07-08T03:17:33;15.80;;;9.75;;
20348;SDS011;10332;50.208;18.988;2023-07-08T03:20:01;17.38;;;11.00;;
20348;SDS011;10332;50.208;18.988;2023-07-08T03:22:32;14.55;;;9.07;;
20348;SDS011;10332;50.208;18.988;2023-07-08T03:24:59;10.70;;;8.13;;
20348;SDS011;10332;50.208;18.988;2023-07-08T03:27:26;12.07;;;8.38;;
20348;SDS011;10332;50.208;18.988;2023-07-08T03:29:54;13.98;;;9.88;;
20348;SDS011;10332;50.208;18.988;2023-07-08T03:32:22;14.27;;;10.35;;
20348;SDS011;10332;50.208;18.988;2023-07-08T03:34:50;10.60;;;7.85;;
20348;SDS011;10332;50.208;18.988;2023-07-08T03:37:17;9.88;;;7.55;;
20348;SDS011;10332;50.208;18.988;2023-07-08T03:39:45;6.78;;;5.40;;
20348;SDS011;10332;50.208;18.988;2023-07-08T03:42:12;5.90;;;4.45;;
20348;SDS011;10332;50.208;18.988;2023-07-08T03:44:40;5.72;;;4.47;;
20348;SDS011;10332;50.208;18.988;2023-07-08T03:47:07;5.72;;;4.05;;
20348;SDS011;10332;50.208;18.988;2023-07-08T03:49:35;5.68;;;4.70;;
20348;SDS011;10332;50.208;18.988;2023-07-08T03:52:03;7.45;;;5.30;;
20348;SDS011;10332;50.208;18.988;2023-07-08T03:54:31;6.72;;;4.20;;
20348;SDS011;10332;50.208;18.988;2023-07-08T03:56:58;4.93;;;3.78;;
20348;SDS011;10332;50.208;18.988;2023-07-08T03:59:26;4.90;;;4.25;;
20348;SDS011;10332;50.208;18.988;2023-07-08T04:01:53;7.90;;;5.97;;
20348;SDS011;10332;50.208;18.988;2023-07-08T04:04:21;6.07;;;4.57;;
20348;SDS011;10332;50.208;18.988;2023-07-08T04:06:48;3.90;;;3.30;;
20348;SDS011;10332;50.208;18.988;2023-07-08T04:09:17;7.68;;;5.75;;
20348;SDS011;10332;50.208;18.988;2023-07-08T04:11:44;6.28;;;4.88;;
20348;SDS011;10332;50.208;18.988;2023-07-08T04:14:12;9.45;;;6.72;;
20348;SDS011;10332;50.208;18.988;2023-07-08T04:19:18;10.20;;;7.45;;
20348;SDS011;10332;50.208;18.988;2023-07-08T04:21:46;12.65;;;8.27;;
20348;SDS011;10332;50.208;18.988;2023-07-08T04:24:14;10.55;;;7.55;;
20348;SDS011;10332;50.208;18.988;2023-07-08T04:26:44;10.88;;;7.65;;
20348;SDS011;10332;50.208;18.988;2023-07-08T04:29:16;9.48;;;7.75;;
20348;SDS011;10332;50.208;18.988;2023-07-08T04:31:47;7.80;;;6.53;;
20348;SDS011;10332;50.208;18.988;2023-07-08T04:34:15;9.27;;;6.70;;
20348;SDS011;10332;50.208;18.988;2023-07-08T04:36:43;5.97;;;4.97;;
20348;SDS011;10332;50.208;18.988;2023-07-08T04:39:11;5.47;;;4.63;;
20348;SDS011;10332;50.208;18.988;2023-07-08T04:41:40;7.22;;;5.00;;
20348;SDS011;10332;50.208;18.988;2023-07-08T04:44:08;8.95;;;5.78;;
20348;SDS011;10332;50.208;18.988;2023-07-08T04:49:12;12.07;;;7.82;;
20348;SDS011;10332;50.208;18.988;2023-07-08T04:51:40;12.90;;;7.43;;
20348;SDS011;10332;50.208;18.988;2023-07-08T04:54:09;11.77;;;8.07;;
20348;SDS011;10332;50.208;18.988;2023-07-08T04:56:39;10.85;;;7.68;;
20348;SDS011;10332;50.208;18.988;2023-07-08T04:59:14;10.18;;;6.85;;
20348;SDS011;10332;50.208;18.988;2023-07-08T05:01:44;10.55;;;6.95;;
20348;SDS011;10332;50.208;18.988;2023-07-08T05:04:16;10.13;;;6.78;;
20348;SDS011;10332;50.208;18.988;2023-07-08T05:06:46;9.52;;;7.20;;
20348;SDS011;10332;50.208;18.988;2023-07-08T05:09:14;10.90;;;6.97;;
20348;SDS011;10332;50.208;18.988;2023-07-08T05:11:43;11.35;;;6.90;;
20348;SDS011;10332;50.208;18.988;2023-07-08T05:14:12;10.88;;;7.93;;
20348;SDS011;10332;50.208;18.988;2023-07-08T05:16:40;8.00;;;5.65;;
20348;SDS011;10332;50.208;18.988;2023-07-08T05:19:08;9.27;;;6.18;;
20348;SDS011;10332;50.208;18.988;2023-07-08T05:21:36;9.15;;;5.50;;
20348;SDS011;10332;50.208;18.988;2023-07-08T05:24:05;10.13;;;5.88;;
20348;SDS011;10332;50.208;18.988;2023-07-08T05:26:33;10.98;;;5.78;;
20348;SDS011;10332;50.208;18.988;2023-07-08T05:29:01;9.23;;;6.32;;
20348;SDS011;10332;50.208;18.988;2023-07-08T05:31:29;8.43;;;6.15;;
20348;SDS011;10332;50.208;18.988;2023-07-08T05:34:13;5.40;;;4.60;;
20348;SDS011;10332;50.208;18.988;2023-07-08T05:36:41;8.48;;;5.65;;
20348;SDS011;10332;50.208;18.988;2023-07-08T05:39:09;7.88;;;5.55;;
20348;SDS011;10332;50.208;18.988;2023-07-08T05:41:37;8.15;;;5.40;;
20348;SDS011;10332;50.208;18.988;2023-07-08T05:44:05;8.00;;;5.07;;
20348;SDS011;10332;50.208;18.988;2023-07-08T05:46:32;6.57;;;4.70;;
20348;SDS011;10332;50.208;18.988;2023-07-08T05:49:00;10.93;;;6.63;;
20348;SDS011;10332;50.208;18.988;2023-07-08T05:51:27;9.75;;;6.55;;
20348;SDS011;10332;50.208;18.988;2023-07-08T05:53:55;8.38;;;5.82;;
20348;SDS011;10332;50.208;18.988;2023-07-08T05:56:22;10.45;;;6.82;;
20348;SDS011;10332;50.208;18.988;2023-07-08T05:58:50;9.43;;;6.93;;
20348;SDS011;10332;50.208;18.988;2023-07-08T06:01:17;10.23;;;5.75;;
20348;SDS011;10332;50.208;18.988;2023-07-08T06:03:45;9.65;;;7.05;;
20348;SDS011;10332;50.208;18.988;2023-07-08T06:06:12;8.68;;;6.10;;
20348;SDS011;10332;50.208;18.988;2023-07-08T06:08:40;9.05;;;6.15;;
20348;SDS011;10332;50.208;18.988;2023-07-08T06:11:08;9.35;;;6.05;;
20348;SDS011;10332;50.208;18.988;2023-07-08T06:13:36;10.25;;;6.60;;
20348;SDS011;10332;50.208;18.988;2023-07-08T06:16:03;8.82;;;5.43;;
20348;SDS011;10332;50.208;18.988;2023-07-08T06:18:31;7.82;;;5.10;;
20348;SDS011;10332;50.208;18.988;2023-07-08T06:20:59;8.48;;;5.63;;
20348;SDS011;10332;50.208;18.988;2023-07-08T06:23:29;10.00;;;7.05;;
20348;SDS011;10332;50.208;18.988;2023-07-08T06:25:56;8.63;;;5.97;;
20348;SDS011;10332;50.208;18.988;2023-07-08T06:28:24;8.10;;;5.68;;
20348;SDS011;10332;50.208;18.988;2023-07-08T06:30:52;7.90;;;4.90;;
20348;SDS011;10332;50.208;18.988;2023-07-08T06:33:19;10.65;;;6.20;;
20348;SDS011;10332;50.208;18.988;2023-07-08T06:35:48;7.47;;;4.88;;
20348;SDS011;10332;50.208;18.988;2023-07-08T06:38:15;8.30;;;5.18;;
20348;SDS011;10332;50.208;18.988;2023-07-08T06:40:43;8.68;;;4.95;;
20348;SDS011;10332;50.208;18.988;2023-07-08T06:43:10;5.63;;;3.90;;
20348;SDS011;10332;50.208;18.988;2023-07-08T06:45:38;6.80;;;4.50;;
20348;SDS011;10332;50.208;18.988;2023-07-08T06:48:07;7.22;;;4.55;;
20348;SDS011;10332;50.208;18.988;2023-07-08T06:50:34;6.88;;;5.15;;
20348;SDS011;10332;50.208;18.988;2023-07-08T06:53:02;6.57;;;4.53;;
20348;SDS011;10332;50.208;18.988;2023-07-08T06:55:29;6.15;;;3.97;;
20348;SDS011;10332;50.208;18.988;2023-07-08T06:57:57;6.68;;;3.88;;
20348;SDS011;10332;50.208;18.988;2023-07-08T07:00:24;5.85;;;3.67;;
20348;SDS011;10332;50.208;18.988;2023-07-08T07:02:52;5.78;;;3.70;;
20348;SDS011;10332;50.208;18.988;2023-07-08T07:05:19;5.43;;;3.65;;
20348;SDS011;10332;50.208;18.988;2023-07-08T07:07:49;4.05;;;3.10;;
20348;SDS011;10332;50.208;18.988;2023-07-08T07:10:16;5.18;;;4.35;;
20348;SDS011;10332;50.208;18.988;2023-07-08T07:12:44;4.82;;;3.80;;
20348;SDS011;10332;50.208;18.988;2023-07-08T07:15:11;5.65;;;3.78;;
20348;SDS011;10332;50.208;18.988;2023-07-08T07:17:39;4.00;;;3.42;;
20348;SDS011;10332;50.208;18.988;2023-07-08T07:20:07;4.57;;;3.80;;
20348;SDS011;10332;50.208;18.988;2023-07-08T07:22:35;5.38;;;4.10;;
20348;SDS011;10332;50.208;18.988;2023-07-08T07:25:03;6.72;;;3.83;;
20348;SDS011;10332;50.208;18.988;2023-07-08T07:27:31;5.95;;;4.53;;
20348;SDS011;10332;50.208;18.988;2023-07-08T07:29:58;5.75;;;3.88;;
20348;SDS011;10332;50.208;18.988;2023-07-08T07:32:26;4.65;;;3.60;;
20348;SDS011;10332;50.208;18.988;2023-07-08T07:34:56;5.18;;;3.75;;
20348;SDS011;10332;50.208;18.988;2023-07-08T07:37:25;4.68;;;3.40;;
20348;SDS011;10332;50.208;18.988;2023-07-08T07:39:52;8.98;;;4.88;;
20348;SDS011;10332;50.208;18.988;2023-07-08T07:42:20;10.45;;;7.82;;
20348;SDS011;10332;50.208;18.988;2023-07-08T07:44:47;5.43;;;4.82;;
20348;SDS011;10332;50.208;18.988;2023-07-08T07:47:15;5.38;;;3.47;;
20348;SDS011;10332;50.208;18.988;2023-07-08T07:49:43;4.85;;;3.40;;
20348;SDS011;10332;50.208;18.988;2023-07-08T07:52:10;3.05;;;2.38;;
20348;SDS011;10332;50.208;18.988;2023-07-08T07:54:38;5.22;;;4.03;;
20348;SDS011;10332;50.208;18.988;2023-07-08T07:57:06;5.60;;;4.00;;
20348;SDS011;10332;50.208;18.988;2023-07-08T07:59:34;6.72;;;5.53;;
20348;SDS011;10332;50.208;18.988;2023-07-08T08:02:02;5.20;;;3.50;;
20348;SDS011;10332;50.208;18.988;2023-07-08T08:04:30;5.38;;;4.10;;
20348;SDS011;10332;50.208;18.988;2023-07-08T08:06:57;4.38;;;3.53;;
20348;SDS011;10332;50.208;18.988;2023-07-08T08:09:25;4.00;;;3.10;;
20348;SDS011;10332;50.208;18.988;2023-07-08T08:11:53;5.10;;;3.53;;
20348;SDS011;10332;50.208;18.988;2023-07-08T08:14:21;5.00;;;3.50;;
20348;SDS011;10332;50.208;18.988;2023-07-08T08:16:49;4.85;;;3.65;;
20348;SDS011;10332;50.208;18.988;2023-07-08T08:19:17;5.13;;;3.10;;
20348;SDS011;10332;50.208;18.988;2023-07-08T08:21:44;3.67;;;2.95;;
20348;SDS011;10332;50.208;18.988;2023-07-08T08:24:12;5.30;;;3.47;;
20348;SDS011;10332;50.208;18.988;2023-07-08T08:26:40;3.28;;;2.80;;
20348;SDS011;10332;50.208;18.988;2023-07-08T08:29:07;3.35;;;2.60;;
20348;SDS011;10332;50.208;18.988;2023-07-08T08:31:35;2.53;;;2.33;;
20348;SDS011;10332;50.208;18.988;2023-07-08T08:34:03;2.78;;;2.28;;
20348;SDS011;10332;50.208;18.988;2023-07-08T08:36:31;2.00;;;1.80;;
20348;SDS011;10332;50.208;18.988;2023-07-08T08:38:58;4.43;;;3.53;;
20348;SDS011;10332;50.208;18.988;2023-07-08T08:41:30;2.35;;;2.15;;
20348;SDS011;10332;50.208;18.988;2023-07-08T08:44:01;3.42;;;3.13;;
20348;SDS011;10332;50.208;18.988;2023-07-08T08:46:39;3.55;;;2.88;;
20348;SDS011;10332;50.208;18.988;2023-07-08T08:49:26;2.60;;;2.40;;
20348;SDS011;10332;50.208;18.988;2023-07-08T08:51:59;3.72;;;2.60;;
20348;SDS011;10332;50.208;18.988;2023-07-08T08:54:26;2.60;;;2.40;;
20348;SDS011;10332;50.208;18.988;2023-07-08T09:00:08;2.78;;;1.90;;
20348;SDS011;10332;50.208;18.988;2023-07-08T09:03:29;5.55;;;2.50;;
20348;SDS011;10332;50.208;18.988;2023-07-08T09:05:42;5.13;;;2.22;;
20348;SDS011;10332;50.208;18.988;2023-07-08T09:08:18;4.22;;;2.03;;
20348;SDS011;10332;50.208;18.988;2023-07-08T09:14:03;2.55;;;2.17;;
20348;SDS011;10332;50.208;18.988;2023-07-08T09:16:43;2.78;;;2.35;;
20348;SDS011;10332;50.208;18.988;2023-07-08T09:19:28;2.92;;;2.30;;
20348;SDS011;10332;50.208;18.988;2023-07-08T09:24:46;2.72;;;2.20;;
20348;SDS011;10332;50.208;18.988;2023-07-08T09:27:22;1.73;;;1.63;;
20348;SDS011;10332;50.208;18.988;2023-07-08T09:29:50;3.83;;;1.73;;
20348;SDS011;10332;50.208;18.988;2023-07-08T09:32:21;3.58;;;2.10;;
20348;SDS011;10332;50.208;18.988;2023-07-08T09:34:54;5.35;;;3.85;;
20348;SDS011;10332;50.208;18.988;2023-07-08T09:37:31;3.63;;;3.03;;
20348;SDS011;10332;50.208;18.988;2023-07-08T09:40:10;2.60;;;2.35;;
20348;SDS011;10332;50.208;18.988;2023-07-08T09:42:47;3.25;;;2.22;;
20348;SDS011;10332;50.208;18.988;2023-07-08T09:45:27;2.78;;;1.98;;
20348;SDS011;10332;50.208;18.988;2023-07-08T09:47:56;1.83;;;1.73;;
20348;SDS011;10332;50.208;18.988;2023-07-08T09:50:26;2.03;;;1.75;;
20348;SDS011;10332;50.208;18.988;2023-07-08T09:52:58;2.35;;;2.03;;
20348;SDS011;10332;50.208;18.988;2023-07-08T09:55:28;2.45;;;1.77;;
20348;SDS011;10332;50.208;18.988;2023-07-08T09:57:58;1.92;;;1.70;;
20348;SDS011;10332;50.208;18.988;2023-07-08T10:00:32;3.65;;;2.25;;
20348;SDS011;10332;50.208;18.988;2023-07-08T10:03:16;1.80;;;1.60;;
20348;SDS011;10332;50.208;18.988;2023-07-08T10:05:51;3.47;;;1.70;;
20348;SDS011;10332;50.208;18.988;2023-07-08T10:08:42;1.77;;;1.67;;
20348;SDS011;10332;50.208;18.988;2023-07-08T10:13:59;1.80;;;1.60;;
20348;SDS011;10332;50.208;18.988;2023-07-08T10:16:41;1.98;;;1.52;;
20348;SDS011;10332;50.208;18.988;2023-07-08T10:19:16;2.63;;;2.10;;
20348;SDS011;10332;50.208;18.988;2023-07-08T10:21:50;2.97;;;1.95;;
20348;SDS011;10332;50.208;18.988;2023-07-08T10:30:22;3.05;;;1.98;;
20348;SDS011;10332;50.208;18.988;2023-07-08T10:36:07;2.30;;;2.10;;
20348;SDS011;10332;50.208;18.988;2023-07-08T10:39:03;1.70;;;1.60;;
20348;SDS011;10332;50.208;18.988;2023-07-08T10:47:51;3.35;;;2.65;;
20348;SDS011;10332;50.208;18.988;2023-07-08T10:56:50;1.90;;;1.75;;
20348;SDS011;10332;50.208;18.988;2023-07-08T11:05:48;2.15;;;1.95;;
20348;SDS011;10332;50.208;18.988;2023-07-08T11:08:55;2.78;;;2.10;;
20348;SDS011;10332;50.208;18.988;2023-07-08T11:11:40;2.17;;;1.98;;
20348;SDS011;10332;50.208;18.988;2023-07-08T11:14:29;1.65;;;1.55;;
20348;SDS011;10332;50.208;18.988;2023-07-08T11:17:07;2.65;;;2.10;;
20348;SDS011;10332;50.208;18.988;2023-07-08T11:19:56;2.17;;;1.88;;
20348;SDS011;10332;50.208;18.988;2023-07-08T11:22:38;1.65;;;1.55;;
20348;SDS011;10332;50.208;18.988;2023-07-08T11:25:20;1.95;;;1.80;;
20348;SDS011;10332;50.208;18.988;2023-07-08T11:27:54;3.08;;;2.13;;
20348;SDS011;10332;50.208;18.988;2023-07-08T11:30:28;1.95;;;1.67;;
20348;SDS011;10332;50.208;18.988;2023-07-08T11:33:00;1.90;;;1.58;;
20348;SDS011;10332;50.208;18.988;2023-07-08T11:38:19;1.80;;;1.70;;
20348;SDS011;10332;50.208;18.988;2023-07-08T11:40:57;2.42;;;2.17;;
20348;SDS011;10332;50.208;18.988;2023-07-08T11:43:46;1.85;;;1.70;;
20348;SDS011;10332;50.208;18.988;2023-07-08T11:46:22;2.13;;;1.77;;
20348;SDS011;10332;50.208;18.988;2023-07-08T11:48:56;2.03;;;1.80;;
20348;SDS011;10332;50.208;18.988;2023-07-08T11:51:38;2.70;;;2.35;;
20348;SDS011;10332;50.208;18.988;2023-07-08T11:54:19;3.15;;;2.30;;
20348;SDS011;10332;50.208;18.988;2023-07-08T11:59:28;2.95;;;1.77;;
20348;SDS011;10332;50.208;18.988;2023-07-08T12:02:11;1.73;;;1.63;;
20348;SDS011;10332;50.208;18.988;2023-07-08T12:05:11;2.90;;;2.22;;
20348;SDS011;10332;50.208;18.988;2023-07-08T12:07:41;2.33;;;2.13;;
20348;SDS011;10332;50.208;18.988;2023-07-08T12:12:53;2.72;;;2.30;;
20348;SDS011;10332;50.208;18.988;2023-07-08T12:15:24;1.90;;;1.80;;
20348;SDS011;10332;50.208;18.988;2023-07-08T12:17:56;2.15;;;1.95;;
20348;SDS011;10332;50.208;18.988;2023-07-08T12:20:35;2.05;;;1.90;;
20348;SDS011;10332;50.208;18.988;2023-07-08T12:23:09;2.15;;;1.92;;
20348;SDS011;10332;50.208;18.988;2023-07-08T12:25:40;1.60;;;1.50;;
20348;SDS011;10332;50.208;18.988;2023-07-08T12:28:09;2.30;;;1.75;;
20348;SDS011;10332;50.208;18.988;2023-07-08T12:30:39;1.67;;;1.40;;
20348;SDS011;10332;50.208;18.988;2023-07-08T12:33:11;1.55;;;1.45;;
20348;SDS011;10332;50.208;18.988;2023-07-08T12:35:44;1.58;;;1.48;;
20348;SDS011;10332;50.208;18.988;2023-07-08T12:38:23;2.20;;;1.60;;
20348;SDS011;10332;50.208;18.988;2023-07-08T12:41:24;1.52;;;1.42;;
20348;SDS011;10332;50.208;18.988;2023-07-08T12:43:56;1.35;;;1.25;;
20348;SDS011;10332;50.208;18.988;2023-07-08T12:46:23;1.58;;;1.45;;
20348;SDS011;10332;50.208;18.988;2023-07-08T12:48:53;1.63;;;1.35;;
20348;SDS011;10332;50.208;18.988;2023-07-08T12:51:23;1.85;;;1.58;;
20348;SDS011;10332;50.208;18.988;2023-07-08T12:53:53;2.30;;;1.70;;
20348;SDS011;10332;50.208;18.988;2023-07-08T12:56:22;1.67;;;1.58;;
20348;SDS011;10332;50.208;18.988;2023-07-08T12:58:54;1.60;;;1.50;;
20348;SDS011;10332;50.208;18.988;2023-07-08T13:01:28;2.03;;;1.60;;
20348;SDS011;10332;50.208;18.988;2023-07-08T13:04:09;1.98;;;1.30;;
20348;SDS011;10332;50.208;18.988;2023-07-08T13:06:38;2.70;;;1.70;;
20348;SDS011;10332;50.208;18.988;2023-07-08T13:11:54;2.63;;;1.60;;
20348;SDS011;10332;50.208;18.988;2023-07-08T13:14:24;2.03;;;1.52;;
20348;SDS011;10332;50.208;18.988;2023-07-08T13:16:53;2.13;;;1.77;;
20348;SDS011;10332;50.208;18.988;2023-07-08T13:19:21;1.75;;;1.45;;
20348;SDS011;10332;50.208;18.988;2023-07-08T13:21:50;1.83;;;1.55;;
20348;SDS011;10332;50.208;18.988;2023-07-08T13:24:18;1.98;;;1.70;;
20348;SDS011;10332;50.208;18.988;2023-07-08T13:26:48;1.92;;;1.73;;
20348;SDS011;10332;50.208;18.988;2023-07-08T13:29:17;1.60;;;1.50;;
20348;SDS011;10332;50.208;18.988;2023-07-08T13:31:49;1.90;;;1.60;;
20348;SDS011;10332;50.208;18.988;2023-07-08T13:34:23;2.03;;;1.38;;
20348;SDS011;10332;50.208;18.988;2023-07-08T13:36:52;2.35;;;1.67;;
20348;SDS011;10332;50.208;18.988;2023-07-08T13:39:25;2.67;;;1.60;;
20348;SDS011;10332;50.208;18.988;2023-07-08T13:41:57;1.60;;;1.50;;
20348;SDS011;10332;50.208;18.988;2023-07-08T13:44:27;1.73;;;1.60;;
20348;SDS011;10332;50.208;18.988;2023-07-08T13:46:56;1.63;;;1.30;;
20348;SDS011;10332;50.208;18.988;2023-07-08T13:49:30;3.55;;;2.33;;
20348;SDS011;10332;50.208;18.988;2023-07-08T13:54:48;4.00;;;1.60;;
20348;SDS011;10332;50.208;18.988;2023-07-08T13:57:21;1.90;;;1.70;;
20348;SDS011;10332;50.208;18.988;2023-07-08T13:59:58;1.67;;;1.40;;
20348;SDS011;10332;50.208;18.988;2023-07-08T14:02:27;2.00;;;1.70;;
20348;SDS011;10332;50.208;18.988;2023-07-08T14:04:58;2.33;;;1.50;;
20348;SDS011;10332;50.208;18.988;2023-07-08T14:07:31;1.95;;;1.83;;
20348;SDS011;10332;50.208;18.988;2023-07-08T14:10:00;1.98;;;1.77;;
20348;SDS011;10332;50.208;18.988;2023-07-08T14:12:30;2.50;;;1.75;;
20348;SDS011;10332;50.208;18.988;2023-07-08T14:14:58;2.83;;;1.83;;
20348;SDS011;10332;50.208;18.988;2023-07-08T14:17:26;2.90;;;2.60;;
20348;SDS011;10332;50.208;18.988;2023-07-08T14:19:55;2.63;;;2.38;;
20348;SDS011;10332;50.208;18.988;2023-07-08T14:22:24;2.40;;;2.20;;
20348;SDS011;10332;50.208;18.988;2023-07-08T14:24:58;1.80;;;1.70;;
20348;SDS011;10332;50.208;18.988;2023-07-08T14:27:34;2.78;;;1.80;;
20348;SDS011;10332;50.208;18.988;2023-07-08T14:30:02;2.55;;;1.77;;
20348;SDS011;10332;50.208;18.988;2023-07-08T14:32:31;2.38;;;1.70;;
20348;SDS011;10332;50.208;18.988;2023-07-08T14:35:09;2.60;;;1.73;;
20348;SDS011;10332;50.208;18.988;2023-07-08T14:37:41;5.18;;;1.88;;
20348;SDS011;10332;50.208;18.988;2023-07-08T14:42:59;2.90;;;2.60;;
20348;SDS011;10332;50.208;18.988;2023-07-08T14:45:38;2.30;;;2.08;;
20348;SDS011;10332;50.208;18.988;2023-07-08T14:48:12;3.83;;;3.00;;
20348;SDS011;10332;50.208;18.988;2023-07-08T14:50:40;4.78;;;3.92;;
20348;SDS011;10332;50.208;18.988;2023-07-08T14:53:08;3.00;;;2.30;;
20348;SDS011;10332;50.208;18.988;2023-07-08T14:55:37;1.67;;;1.52;;
20348;SDS011;10332;50.208;18.988;2023-07-08T14:58:04;2.13;;;1.50;;
20348;SDS011;10332;50.208;18.988;2023-07-08T15:00:32;1.70;;;1.60;;
20348;SDS011;10332;50.208;18.988;2023-07-08T15:02:59;1.65;;;1.55;;
20348;SDS011;10332;50.208;18.988;2023-07-08T15:05:28;1.48;;;1.30;;
20348;SDS011;10332;50.208;18.988;2023-07-08T15:07:57;3.00;;;1.45;;
20348;SDS011;10332;50.208;18.988;2023-07-08T15:10:27;1.52;;;1.40;;
20348;SDS011;10332;50.208;18.988;2023-07-08T15:12:57;2.63;;;1.60;;
20348;SDS011;10332;50.208;18.988;2023-07-08T15:15:31;2.70;;;2.47;;
20348;SDS011;10332;50.208;18.988;2023-07-08T15:18:05;2.10;;;1.90;;
20348;SDS011;10332;50.208;18.988;2023-07-08T15:20:43;2.40;;;2.20;;
20348;SDS011;10332;50.208;18.988;2023-07-08T15:23:11;1.90;;;1.40;;
20348;SDS011;10332;50.208;18.988;2023-07-08T15:25:40;4.05;;;3.65;;
20348;SDS011;10332;50.208;18.988;2023-07-08T15:28:16;2.40;;;2.15;;
20348;SDS011;10332;50.208;18.988;2023-07-08T15:31:04;2.47;;;2.28;;
20348;SDS011;10332;50.208;18.988;2023-07-08T15:33:31;1.98;;;1.70;;
20348;SDS011;10332;50.208;18.988;2023-07-08T15:35:59;3.45;;;2.42;;
20348;SDS011;10332;50.208;18.988;2023-07-08T15:38:28;2.22;;;2.03;;
20348;SDS011;10332;50.208;18.988;2023-07-08T15:40:55;1.95;;;1.65;;
20348;SDS011;10332;50.208;18.988;2023-07-08T15:43:23;3.13;;;1.98;;
20348;SDS011;10332;50.208;18.988;2023-07-08T15:45:50;1.80;;;1.70;;
20348;SDS011;10332;50.208;18.988;2023-07-08T15:48:18;2.70;;;1.77;;
20348;SDS011;10332;50.208;18.988;2023-07-08T15:50:46;2.33;;;1.70;;
20348;SDS011;10332;50.208;18.988;2023-07-08T15:53:14;5.55;;;4.63;;
20348;SDS011;10332;50.208;18.988;2023-07-08T15:55:43;4.22;;;1.88;;
20348;SDS011;10332;50.208;18.988;2023-07-08T15:58:29;2.22;;;1.73;;
20348;SDS011;10332;50.208;18.988;2023-07-08T16:01:01;1.88;;;1.60;;
20348;SDS011;10332;50.208;18.988;2023-07-08T16:03:31;2.40;;;2.20;;
20348;SDS011;10332;50.208;18.988;2023-07-08T16:06:04;1.65;;;1.55;;